Station: Ngukurr Aws

  Atmospheric Gas Attenuation - ITU Rec 676-11   --------------- db/100km ---------------
Date Time Temp RH % AH g/m3 Dew Point Wind Direction Speed kph Gust kph Barometer mB Rainfall Since 9am 24GHz 47GHz 76GHz 122GHz 134GHz 241GHz
07 07:20 20.8 92 16.66 19.4 0 0 1013.1 0 36.4 37.5 70.2 185.6 200.6 696.0
07 07:10 20.4 93 16.45 19.2 0 0 1013.1 0 36.0 37.3 69.6 183.9 198.4 688.4
07 07:00 20.1 92 15.99 18.8 6 6 1012 0 35.0 36.5 67.6 178.7 192.0 665.9
07 06:50 20.1 90 15.64 18.5 4 4 1013.1 0 34.3 35.9 66.1 174.5 186.8 647.9
07 06:40 20.2 90 15.74 18.5 2 2 1013.1 0 34.5 36.1 66.4 175.5 188.1 652.3
07 06:30 20.5 89 15.83 18.6 4 6 1011.4 0 34.6 36.0 66.5 175.7 188.4 653.7
07 06:20 20.7 90 16.2 19 4 4 1013.1 0 35.4 36.7 68.1 180.0 193.8 672.3
07 06:10 20.7 90 16.2 19 6 6 1013.1 0 35.4 36.7 68.1 180.0 193.8 672.3
07 06:00 20.6 90 16.11 18.9 6 7 1010.9 0 35.2 36.5 67.7 178.8 192.4 667.4
07 05:50 20.3 88 15.48 18.2 6 6 1013.1 0 33.9 35.5 65.1 172.1 183.9 637.8
07 05:40 20.4 88 15.57 18.3 4 4 1013.1 0 34.1 35.7 65.5 173.0 185.0 641.7
07 05:30 20.6 87 15.57 18.4 4 6 1010.6 0 34.1 35.5 65.2 172.2 184.2 638.8
07 05:20 20.6 85 15.21 18.1 4 6 1013.1 0 33.3 34.9 63.7 168.1 179.1 621.2
07 05:10 20.6 84 15.03 17.9 7 7 1013.1 0 32.9 34.6 62.8 166.0 176.5 611.9
07 04:50 20.9 84 15.3 18.1 4 4 1013.1 0 33.5 35.0 63.8 168.6 179.8 623.5
07 04:40 21.1 84 15.48 18.3 2 4 1013.1 0 33.8 35.2 64.5 170.3 181.9 631.1
07 04:30 20.9 83 15.12 17.9 2 4 1009.9 0 33.1 34.5 62.8 166.0 176.7 612.7
07 04:20 21 82 15.02 17.8 2 2 1013.1 0 32.9 34.4 62.5 165.0 175.4 608.2
07 04:10 20.8 83 15.03 17.8 4 4 1013.1 0 32.9 34.5 62.7 165.5 176.0 610.3
07 04:00 20.8 81 14.67 17.4 2 2 1009.8 0 32.1 33.7 60.9 160.8 170.3 590.5
07 03:50 20.8 80 14.48 17.2 2 2 1013.1 0 31.7 33.5 60.2 159.0 167.9 582.3
07 03:40 21.1 80 14.74 17.5 4 4 1013.1 0 32.2 33.9 61.1 161.4 171.1 593.2
07 03:30 21.3 79 14.72 17.5 0 2 1009.7 0 32.2 33.6 60.7 160.3 169.9 589.2
07 03:20 21.3 78 14.54 17.3 2 2 1013.1 0 31.8 33.4 60.1 158.7 167.7 581.5
07 03:10 21.5 76 14.33 17.1 2 2 1013.1 0 31.3 33.0 59.0 155.8 164.3 569.5
07 03:00 21.9 76 14.66 17.5 4 4 1009.9 0 32.0 33.3 60.0 158.4 167.7 581.7
07 02:50 22.2 75 14.72 17.7 4 4 1013.1 0 32.1 33.4 60.2 158.9 168.3 583.7
07 02:40 22.1 75 14.64 17.6 6 7 1013.1 0 32.0 33.3 59.9 158.2 167.4 580.5
07 02:30 23 73 15 17.9 0 0 1010 0 32.7 33.5 60.6 160.1 170.1 590.2
07 02:20 23.6 72 15.31 18.4 0 0 1013.1 0 33.3 33.9 61.7 162.9 173.6 602.4
07 02:10 24.1 72 15.75 18.7 2 2 1013.1 0 34.1 34.5 63.2 166.9 178.7 620.3
07 02:00 24 74 16.1 19.1 4 7 1010.1 0 34.9 35.0 64.6 170.8 183.6 637.4
07 01:50 24.1 72 15.75 18.7 0 2 1013.1 0 34.1 34.5 63.2 166.9 178.7 620.3
07 01:40 23.2 71 14.76 17.6 4 4 1013.1 0 32.1 33.1 59.6 157.3 166.7 578.2
07 01:30 23.1 69 14.26 17.1 0 2 1010.2 0 31.1 32.2 57.4 151.4 159.5 553.2
07 01:20 24.3 66 14.6 17.7 2 2 1013.1 0 31.7 32.4 58.1 153.3 162.1 562.3
07 01:10 24.6 66 14.85 18 4 6 1013.1 0 32.2 32.7 58.9 155.5 164.9 572.2
07 01:00 24.7 67 15.16 18.2 4 6 1010.1 0 32.9 33.1 60.0 158.4 168.6 585.2
07 00:50 24.9 64 14.65 17.8 6 6 1013.1 0 31.8 32.3 57.8 152.7 161.5 560.3
07 00:40 25.1 64 14.82 18 4 6 1013.1 0 32.1 32.5 58.4 154.2 163.4 567.0
07 00:30 25.2 65 15.13 18.2 6 7 1010.6 0 32.8 32.9 59.5 157.2 167.2 580.2
07 00:20 25.1 64 14.82 18 6 7 1013.1 0 32.1 32.5 58.4 154.2 163.4 567.0
07 00:10 25.1 64 14.82 17.8 6 6 1013.1 0 32.1 32.5 58.4 154.2 163.4 567.0
07 00:00 25.1 64 14.82 17.8 6 7 1010.8 0 32.1 32.4 58.3 153.9 163.1 566.1
06 23:50 24.7 66 14.94 17.9 6 6 1013.1 0 32.4 32.8 59.2 156.4 165.9 575.8
06 23:40 23.8 61 13.12 16 0 0 1013.1 0 28.6 30.1 52.3 137.9 142.9 495.4
06 23:30 24.3 59 13.06 15.8 0 2 1010.9 0 28.5 29.8 51.6 136.1 141.0 488.7
06 23:20 25 57 13.12 15.9 2 2 1013.1 0 28.5 29.7 51.5 135.8 140.7 487.9
06 23:10 26 58 14.12 17.1 4 4 1013.1 0 30.6 31.0 54.8 144.8 152.1 527.6
06 23:00 26.3 58 14.36 17.6 4 6 1011 0 31.0 31.2 55.5 146.5 154.4 535.9
06 22:50 26.3 58 14.36 17.6 4 6 1013.1 0 31.0 31.3 55.6 146.8 154.7 536.8
06 22:40 26.1 60 14.69 17.7 4 6 1013.1 0 31.7 31.9 57.1 150.8 159.5 553.7
06 22:30 25.5 58 13.73 16.6 0 2 1011 0 29.8 30.4 53.5 141.2 147.6 512.0
06 22:20 25.4 56 13.18 16.2 0 0 1013.1 0 28.6 29.7 51.5 135.7 140.8 488.2
06 22:10 25.4 54 12.71 15.4 0 0 1013.1 0 27.6 28.9 49.6 130.8 134.7 466.8
06 22:00 25.7 54 12.93 15.7 0 0 1010.7 0 28.1 29.1 50.2 132.3 136.7 474.1
06 21:50 26.3 50 12.38 15.3 0 0 1013.1 0 26.9 28.1 47.8 125.9 129.0 446.9
06 21:40 26.8 52 13.24 16.1 2 4 1013.1 0 28.7 29.3 50.8 134.0 139.1 482.3
06 21:30 26.9 52 13.31 16.2 6 9 1010.5 0 28.8 29.3 50.9 134.2 139.5 483.8
06 21:20 27 48 12.35 15.3 7 7 1013.1 0 26.8 27.8 47.2 124.5 127.4 441.7
06 21:10 27.1 51 13.2 16.1 11 13 1013.1 0 28.5 29.1 50.5 133.1 138.0 478.6
06 21:00 25.7 45 10.77 12.9 4 4 1010 0 23.6 25.7 41.9 110.3 109.7 379.6
06 20:50 25.9 44 10.65 13 4 4 1013.1 0 23.3 25.6 41.5 109.2 108.3 374.5
06 20:40 26.3 45 11.14 13.4 2 2 1013.1 0 24.3 26.2 43.1 113.4 113.6 393.3
06 20:30 26.6 45 11.33 13.7 2 4 1009.7 0 24.7 26.3 43.5 114.5 115.2 398.8
06 20:20 26.5 43 10.76 13.2 2 4 1013.1 0 23.5 25.6 41.6 109.4 108.8 376.3
06 20:10 26.7 42 10.63 12.7 2 2 1013.1 0 23.2 25.3 41.0 107.9 106.9 370.0
06 20:00 26.9 40 10.24 12.5 4 6 1009.3 0 22.4 24.6 39.4 103.5 101.8 351.9
06 19:50 27.1 41 10.61 12.7 4 4 1013.1 0 23.1 25.2 40.7 107.2 106.2 367.3
06 19:40 27.5 39 10.32 12.3 4 4 1013.1 0 22.5 24.7 39.5 103.9 102.2 353.6
06 19:30 28 38 10.33 12.4 4 6 1008.8 0 22.5 24.4 39.1 102.9 101.4 350.7
06 19:20 28.5 37 10.34 12.4 0 0 1013.1 0 22.5 24.4 39.1 102.8 101.2 350.1
06 19:10 29.1 34 9.82 12 0 0 1013.1 0 21.4 23.6 37.0 97.3 94.6 327.0
06 19:00 29.5 34 10.04 12 0 0 1008.4 0 21.8 23.6 37.4 98.4 96.2 332.7
06 18:50 30.1 32 9.76 12 0 0 1013.1 0 21.2 23.2 36.4 95.6 92.8 320.7
06 18:40 30.9 31 9.87 12.2 2 2 1013.1 0 21.4 23.2 36.4 95.7 93.1 321.8
06 18:30 31.4 30 9.81 12.2 4 6 1008 0 21.3 22.8 35.8 94.1 91.4 316.3
06 18:20 31.8 30 10.02 12.5 2 4 1013.1 0 21.7 23.1 36.5 95.9 93.7 324.0
06 18:10 32.3 30 10.29 12.5 4 6 1013.1 0 22.2 23.4 37.2 97.8 96.0 332.3
06 18:00 32.7 30 10.51 12.9 4 7 1007.6 0 22.6 23.4 37.5 98.7 97.5 337.6
06 17:50 33 29 10.33 12.6 6 6 1013.1 0 22.3 23.3 37.0 97.3 95.6 331.1
06 17:40 33.4 28 10.18 12.9 4 7 1013.1 0 21.9 23.0 36.3 95.5 93.6 323.8
06 17:30 33.2 30 10.8 13.3 7 13 1007.5 0 23.2 23.7 38.2 100.7 100.0 346.6
06 17:20 33.2 28 10.08 12.7 7 13 1013.1 0 21.7 22.9 36.1 94.9 92.7 320.8
06 17:10 33.3 28 10.13 12.3 11 13 1013.1 0 21.8 22.9 36.2 95.2 93.1 322.3
06 17:00 34 28 10.51 12.9 7 11 1007.3 0 22.6 23.1 36.9 97.1 95.9 332.3
06 16:50 33.9 28 10.46 12.8 6 7 1013.1 0 22.5 23.2 37.0 97.4 96.0 332.4
06 16:40 34.4 27 10.35 13.2 6 7 1013.1 0 22.2 22.9 36.4 95.8 94.2 326.3
06 16:30 34.4 29 11.12 13.8 9 17 1007.3 0 23.8 23.8 38.7 102.0 102.0 353.6
06 16:20 34.3 27 10.3 13.1 11 17 1013.1 0 22.1 22.9 36.3 95.5 93.8 324.8
06 16:10 34.1 26 9.81 12.4 9 13 1013.1 0 21.1 22.3 34.8 91.5 88.9 307.4
06 16:00 34.5 26 10.02 12.2 11 19 1007.3 0 21.6 22.3 35.1 92.4 90.2 312.2
06 15:50 34 28 10.51 13.4 4 6 1013.1 0 22.6 23.3 37.1 97.7 96.4 333.8
06 15:40 33.2 31 11.16 13.8 2 4 1013.1 0 23.9 24.3 39.7 104.4 104.5 362.0
06 15:30 32.6 32 11.16 13.8 11 20 1007.6 0 24.0 24.3 39.7 104.6 104.8 363.1
06 15:20 33.8 31 11.52 14.3 11 15 1013.1 0 24.6 24.7 40.6 106.9 107.7 373.3
06 15:10 32.8 33 11.63 14.4 6 11 1013.1 0 24.9 25.1 41.5 109.2 110.3 382.2
06 15:00 33.8 31 11.52 14.3 11 20 1007.8 0 24.7 24.5 40.4 106.4 107.2 371.8
06 14:50 33.5 30 10.97 14 20 22 1013.1 0 23.5 24.0 38.9 102.3 102.0 353.4
06 14:40 33.3 31 11.22 14.3 7 9 1013.1 0 24.1 24.4 39.8 104.8 105.0 363.9

Last Refresh: 07-Aug-2020 07:35:38

Most of the information presented on this site is sourced from the Bureau of Meteorology.  Copyright in all material sourced from the Bureau of Meteorology resides with the Commonwealth of Australia.